createdAt,value
2024-01-16T00:00:03.499Z,5.75
2024-01-16T00:02:31.481Z,6.75
2024-01-16T00:04:59.496Z,5.00
2024-01-16T00:07:27.504Z,5.50
2024-01-16T00:09:55.760Z,5.00
2024-01-16T00:12:25.103Z,5.00
2024-01-16T00:14:53.088Z,5.75
2024-01-16T00:17:21.135Z,5.00
2024-01-16T00:19:49.390Z,5.00
2024-01-16T00:22:17.297Z,5.00
2024-01-16T00:24:45.323Z,5.50
2024-01-16T00:27:13.278Z,5.00
2024-01-16T00:29:42.958Z,5.00
2024-01-16T00:32:11.061Z,5.00
2024-01-16T00:34:39.141Z,5.00
2024-01-16T00:37:07.114Z,5.00
2024-01-16T00:39:35.419Z,4.00
2024-01-16T00:42:03.934Z,5.00
2024-01-16T00:44:31.930Z,4.00
2024-01-16T00:47:02.969Z,5.00
2024-01-16T00:49:31.594Z,5.00
2024-01-16T00:51:59.662Z,4.75
2024-01-16T00:54:27.759Z,4.00
2024-01-16T00:57:00.534Z,4.25
2024-01-16T00:59:28.580Z,4.00
2024-01-16T01:01:56.872Z,4.25
2024-01-16T01:04:26.228Z,4.00
2024-01-16T01:06:54.650Z,4.00
2024-01-16T01:09:22.918Z,4.00
2024-01-16T01:11:51.197Z,3.75
2024-01-16T01:14:19.406Z,4.25
2024-01-16T01:16:47.498Z,5.00
2024-01-16T01:19:15.521Z,4.00
2024-01-16T01:21:45.254Z,4.00
2024-01-16T01:24:13.160Z,3.00
2024-01-16T01:26:41.179Z,4.00
2024-01-16T01:29:08.263Z,5.00
2024-01-16T01:31:36.299Z,4.00
2024-01-16T01:34:05.604Z,3.00
2024-01-16T01:36:33.648Z,3.75
2024-01-16T01:39:04.151Z,4.00
2024-01-16T01:41:32.447Z,4.00
2024-01-16T01:44:00.492Z,4.00
2024-01-16T01:46:28.650Z,3.25
2024-01-16T01:48:56.694Z,4.00
2024-01-16T01:51:25.789Z,4.00
2024-01-16T01:53:53.996Z,3.00
2024-01-16T01:56:23.394Z,3.75
2024-01-16T01:58:54.535Z,3.50
2024-01-16T02:01:22.844Z,4.00
2024-01-16T02:03:51.763Z,3.25
2024-01-16T02:06:19.929Z,3.25
2024-01-16T02:08:48.101Z,3.50
2024-01-16T02:11:16.619Z,3.00
2024-01-16T02:13:46.002Z,4.00
2024-01-16T02:16:21.099Z,3.00
2024-01-16T02:18:49.246Z,4.00
2024-01-16T02:21:20.072Z,3.00
2024-01-16T02:23:49.456Z,3.25
2024-01-16T02:26:17.961Z,3.00
2024-01-16T02:28:45.900Z,3.00
2024-01-16T02:31:14.233Z,3.00
2024-01-16T02:33:42.226Z,3.00
2024-01-16T02:36:10.376Z,3.75
2024-01-16T02:38:38.364Z,3.00
2024-01-16T02:41:09.472Z,3.00
2024-01-16T02:43:37.482Z,3.00
2024-01-16T02:46:05.711Z,3.00
2024-01-16T02:48:33.753Z,3.00
2024-01-16T02:51:02.001Z,4.00
2024-01-16T02:53:30.161Z,3.50
2024-01-16T02:55:59.698Z,3.00
2024-01-16T02:58:29.099Z,2.00
2024-01-16T03:00:57.387Z,3.00
2024-01-16T03:03:25.605Z,2.75
2024-01-16T03:05:53.687Z,3.00
2024-01-16T03:08:23.198Z,4.00
2024-01-16T03:10:51.623Z,3.00
2024-01-16T03:13:19.637Z,3.00
2024-01-16T03:15:49.079Z,3.00
2024-01-16T03:18:17.129Z,3.00
2024-01-16T03:20:45.633Z,3.75
2024-01-16T03:23:13.734Z,3.00
2024-01-16T03:25:41.694Z,2.75
2024-01-16T03:28:11.701Z,3.00
2024-01-16T03:30:40.034Z,2.75
2024-01-16T03:33:09.630Z,2.00
2024-01-16T03:35:38.008Z,3.50
2024-01-16T03:38:06.385Z,2.75
2024-01-16T03:40:35.641Z,3.00
2024-01-16T03:43:03.734Z,2.00
2024-01-16T03:45:31.721Z,3.00
2024-01-16T03:48:00.640Z,3.00
2024-01-16T03:50:30.362Z,3.00
2024-01-16T03:52:58.380Z,3.00
2024-01-16T03:55:26.772Z,3.00
2024-01-16T03:57:54.875Z,2.00
2024-01-16T04:00:23.210Z,3.00
2024-01-16T04:02:51.250Z,2.50
2024-01-16T04:05:19.317Z,3.00
2024-01-16T04:07:48.779Z,2.00
2024-01-16T04:10:17.144Z,3.00
2024-01-16T04:12:45.103Z,2.00
2024-01-16T04:15:13.049Z,3.00
2024-01-16T04:17:41.125Z,2.50
2024-01-16T04:20:10.422Z,3.50
2024-01-16T04:22:39.288Z,4.00
2024-01-16T04:25:09.052Z,3.00
2024-01-16T04:27:36.988Z,2.00
2024-01-16T04:30:08.256Z,2.00
2024-01-16T04:32:36.351Z,3.00
2024-01-16T04:35:04.834Z,2.00
2024-01-16T04:37:32.825Z,2.00
2024-01-16T04:40:01.320Z,3.00
2024-01-16T04:42:30.682Z,3.00
2024-01-16T04:44:58.842Z,2.00
2024-01-16T04:47:26.910Z,3.00
2024-01-16T04:49:55.788Z,3.00
2024-01-16T04:52:23.770Z,3.00
2024-01-16T04:54:51.753Z,3.00
2024-01-16T04:57:19.715Z,2.00
2024-01-16T04:59:49.419Z,3.00
2024-01-16T05:02:18.387Z,2.00
2024-01-16T05:04:46.697Z,3.00
2024-01-16T05:07:14.689Z,2.00
2024-01-16T05:09:43.040Z,2.25
2024-01-16T05:12:11.009Z,2.00
2024-01-16T05:14:39.098Z,2.00
2024-01-16T05:17:09.278Z,2.00
2024-01-16T05:19:37.738Z,3.00
2024-01-16T05:22:05.966Z,3.25
2024-01-16T05:24:34.545Z,4.25
2024-01-16T05:27:02.473Z,3.00
2024-01-16T05:29:30.534Z,4.00
2024-01-16T05:31:58.565Z,4.75
2024-01-16T05:34:28.910Z,4.00
2024-01-16T05:36:56.935Z,4.00
2024-01-16T05:39:24.891Z,5.00
2024-01-16T05:41:53.207Z,6.00
2024-01-16T05:44:21.308Z,5.25
2024-01-16T05:46:49.279Z,6.00
2024-01-16T05:49:17.273Z,6.00
2024-01-16T05:51:47.243Z,5.25
2024-01-16T05:54:15.205Z,6.00
2024-01-16T05:56:43.156Z,6.00
2024-01-16T05:59:11.127Z,7.00
2024-01-16T06:01:39.917Z,6.00
2024-01-16T06:04:07.902Z,5.75
2024-01-16T06:06:35.948Z,6.75
2024-01-16T06:09:06.450Z,6.00
2024-01-16T06:11:35.866Z,6.00
2024-01-16T06:14:03.918Z,5.00
2024-01-16T06:16:31.882Z,5.50
2024-01-16T06:18:59.949Z,5.50
2024-01-16T06:21:28.769Z,6.00
2024-01-16T06:23:56.799Z,5.50
2024-01-16T06:26:26.325Z,6.00
2024-01-16T06:28:54.309Z,6.00
2024-01-16T06:31:22.657Z,6.00
2024-01-16T06:33:51.630Z,5.00
2024-01-16T06:36:19.635Z,4.00
2024-01-16T06:38:47.637Z,4.25
2024-01-16T06:41:15.946Z,3.25
2024-01-16T06:43:45.313Z,4.25
2024-01-16T06:46:13.328Z,4.00
2024-01-16T06:48:41.438Z,5.00
2024-01-16T06:51:11.629Z,4.00
2024-01-16T06:53:39.611Z,4.00
2024-01-16T06:56:08.783Z,4.00
2024-01-16T06:58:37.043Z,4.00
2024-01-16T07:01:06.822Z,4.00
2024-01-16T07:03:34.911Z,3.75
2024-01-16T07:06:03.702Z,4.00
2024-01-16T07:08:31.904Z,3.00
2024-01-16T07:11:00.284Z,3.50
2024-01-16T07:13:28.237Z,3.75
2024-01-16T07:15:56.166Z,4.00
2024-01-16T07:18:25.667Z,3.00
2024-01-16T07:20:54.142Z,3.00
2024-01-16T07:23:22.215Z,3.00
2024-01-16T07:25:50.226Z,3.00
2024-01-16T07:28:18.209Z,3.00
2024-01-16T07:30:46.550Z,3.00
2024-01-16T07:33:14.666Z,3.00
2024-01-16T07:35:48.949Z,3.00
2024-01-16T07:38:17.320Z,3.00
2024-01-16T07:40:45.615Z,3.00
2024-01-16T07:43:14.037Z,2.00
2024-01-16T07:45:42.020Z,2.75
2024-01-16T07:48:10.068Z,3.00
2024-01-16T07:50:38.417Z,2.75
2024-01-16T07:53:07.839Z,2.00
2024-01-16T07:55:35.837Z,2.00
2024-01-16T07:58:05.026Z,3.00
2024-01-16T08:00:33.335Z,2.50
2024-01-16T08:03:01.402Z,2.00
2024-01-16T08:05:31.310Z,2.00
2024-01-16T08:07:59.413Z,2.50
2024-01-16T08:10:29.011Z,2.00
2024-01-16T08:12:57.030Z,2.00
2024-01-16T08:15:25.044Z,2.00
2024-01-16T08:17:53.093Z,2.00
2024-01-16T08:20:21.369Z,1.25
2024-01-16T08:22:51.355Z,2.00
2024-01-16T08:25:19.378Z,2.00
2024-01-16T08:27:49.943Z,2.00
2024-01-16T08:30:18.528Z,2.00
2024-01-16T08:32:46.562Z,2.00
2024-01-16T08:35:14.753Z,1.00
2024-01-16T08:37:42.749Z,2.00
2024-01-16T08:40:12.772Z,2.00
2024-01-16T08:42:40.814Z,1.00
2024-01-16T08:45:11.784Z,2.00
2024-01-16T08:47:39.834Z,1.50
2024-01-16T08:50:10.356Z,2.00
2024-01-16T08:52:38.390Z,2.00
2024-01-16T08:55:07.025Z,2.00
2024-01-16T08:57:34.950Z,2.00
2024-01-16T09:00:04.210Z,2.00
2024-01-16T09:02:33.638Z,1.00
2024-01-16T09:05:01.747Z,2.00
2024-01-16T09:07:29.925Z,1.50
2024-01-16T09:09:58.222Z,1.25
2024-01-16T09:12:27.571Z,2.00
2024-01-16T09:14:55.705Z,2.00
2024-01-16T09:17:23.822Z,1.75
2024-01-16T09:19:53.636Z,2.00
2024-01-16T09:22:21.655Z,1.50
2024-01-16T09:24:49.729Z,1.00
2024-01-16T09:27:17.775Z,1.00
2024-01-16T09:29:46.122Z,1.75
2024-01-16T09:32:14.343Z,2.00
2024-01-16T09:34:42.391Z,1.00
2024-01-16T09:37:11.818Z,2.00
2024-01-16T09:39:40.018Z,1.00
2024-01-16T09:42:07.994Z,2.00
2024-01-16T09:44:36.467Z,1.00
2024-01-16T09:47:05.627Z,2.00
2024-01-16T09:49:33.824Z,1.00
2024-01-16T09:52:03.128Z,1.00
2024-01-16T09:54:32.487Z,1.00
2024-01-16T09:57:01.071Z,2.00
2024-01-16T09:59:29.131Z,1.00
2024-01-16T10:01:57.235Z,1.50
2024-01-16T10:04:25.350Z,1.50
2024-01-16T10:06:53.491Z,1.00
2024-01-16T10:09:21.767Z,1.00
2024-01-16T10:11:51.105Z,1.00
2024-01-16T10:14:19.803Z,1.25
2024-01-16T10:16:58.192Z,1.00
2024-01-16T10:19:35.206Z,2.00
2024-01-16T10:22:10.968Z,1.00
2024-01-16T10:24:38.946Z,1.00
2024-01-16T10:27:08.985Z,1.00
2024-01-16T10:29:46.730Z,1.00
2024-01-16T10:32:29.148Z,1.00
2024-01-16T10:35:05.442Z,1.25
2024-01-16T10:37:33.843Z,1.00
2024-01-16T10:40:02.071Z,1.00
2024-01-16T10:42:31.394Z,1.00
2024-01-16T10:44:59.480Z,1.00
2024-01-16T10:47:27.427Z,1.00
2024-01-16T10:49:55.747Z,1.00
2024-01-16T10:52:24.341Z,0.75
2024-01-16T10:54:52.347Z,1.00
2024-01-16T10:57:20.278Z,1.00
2024-01-16T10:59:53.382Z,1.00
2024-01-16T11:02:22.778Z,1.25
2024-01-16T11:04:51.597Z,1.00
2024-01-16T11:07:19.823Z,1.00
2024-01-16T11:09:48.521Z,1.00
2024-01-16T11:12:17.909Z,1.00
2024-01-16T11:14:46.958Z,1.00
2024-01-16T11:17:19.762Z,1.00
2024-01-16T11:20:01.978Z,1.75
2024-01-16T11:22:38.418Z,1.00
2024-01-16T11:25:13.239Z,1.00
2024-01-16T11:27:41.296Z,1.00
2024-01-16T11:30:13.552Z,1.00
2024-01-16T11:32:43.716Z,1.00
2024-01-16T11:35:12.703Z,1.00
2024-01-16T11:37:42.071Z,1.00
2024-01-16T11:40:29.263Z,1.00
2024-01-16T11:42:58.002Z,1.00
2024-01-16T11:45:56.135Z,1.00
2024-01-16T11:48:25.605Z,1.00
2024-01-16T11:50:54.221Z,1.00
2024-01-16T11:53:34.428Z,1.00
2024-01-16T11:56:41.169Z,1.00
2024-01-16T11:59:29.826Z,1.00
2024-01-16T12:02:02.329Z,1.00
2024-01-16T12:04:32.922Z,1.00
2024-01-16T12:07:01.747Z,1.00
2024-01-16T12:09:30.530Z,1.00
2024-01-16T12:11:59.464Z,1.00
2024-01-16T12:14:27.515Z,1.00
2024-01-16T12:16:55.497Z,1.00
2024-01-16T12:19:24.121Z,1.00
2024-01-16T12:21:53.580Z,1.00
2024-01-16T12:24:21.608Z,1.00
2024-01-16T12:26:49.671Z,1.00
2024-01-16T12:29:20.104Z,1.00
2024-01-16T12:31:48.087Z,1.25
2024-01-16T12:34:16.170Z,1.00
2024-01-16T12:36:44.910Z,1.00
2024-01-16T12:39:14.442Z,1.00
2024-01-16T12:41:43.853Z,1.25
2024-01-16T12:44:16.438Z,1.00
2024-01-16T12:46:46.712Z,1.25
2024-01-16T12:49:14.873Z,1.00
2024-01-16T12:51:43.289Z,1.00
2024-01-16T12:54:16.547Z,1.00
2024-01-16T12:56:44.778Z,1.00
2024-01-16T12:59:13.866Z,1.00
2024-01-16T13:01:43.141Z,1.00
2024-01-16T13:04:11.245Z,1.00
2024-01-16T13:06:39.704Z,1.00
2024-01-16T13:09:11.916Z,1.00
2024-01-16T13:14:37.336Z,0.00
2024-01-16T13:17:07.739Z,0.50
2024-01-16T13:19:35.780Z,1.50
2024-01-16T13:22:05.340Z,1.00
2024-01-16T13:24:33.293Z,1.00
2024-01-16T13:27:01.910Z,1.00
2024-01-16T13:29:30.109Z,1.00
2024-01-16T13:32:00.583Z,1.00
2024-01-16T13:34:28.545Z,1.50
2024-01-16T13:37:09.185Z,1.00
2024-01-16T13:39:43.798Z,1.00
2024-01-16T13:42:11.802Z,1.00
2024-01-16T13:44:39.848Z,1.00
2024-01-16T13:47:12.226Z,1.00
2024-01-16T13:49:43.123Z,1.00
2024-01-16T13:52:11.339Z,1.00
2024-01-16T13:54:40.905Z,1.50
2024-01-16T13:57:10.625Z,1.00
2024-01-16T13:59:39.986Z,1.00
2024-01-16T14:02:09.931Z,1.00
2024-01-16T14:04:38.285Z,1.00
2024-01-16T14:09:37.986Z,1.00
2024-01-16T14:12:09.712Z,1.00
2024-01-16T14:14:39.560Z,1.00
2024-01-16T14:17:09.208Z,1.25
2024-01-16T14:19:37.330Z,1.00
2024-01-16T14:22:05.748Z,1.00
2024-01-16T14:24:33.754Z,1.00
2024-01-16T14:27:01.715Z,1.00
2024-01-16T14:29:30.540Z,1.00
2024-01-16T14:31:59.806Z,1.00
2024-01-16T14:34:29.524Z,1.00
2024-01-16T14:36:57.506Z,1.00
2024-01-16T14:39:27.641Z,1.00
2024-01-16T14:41:56.346Z,1.00
2024-01-16T14:44:24.405Z,1.00
2024-01-16T14:46:55.358Z,1.00
2024-01-16T14:49:23.645Z,1.00
2024-01-16T14:51:53.597Z,1.00
2024-01-16T14:54:21.592Z,1.00
2024-01-16T14:56:49.928Z,1.00
2024-01-16T14:59:18.272Z,2.00
2024-01-16T15:01:46.541Z,1.00
2024-01-16T15:04:14.651Z,1.00
2024-01-16T15:06:43.148Z,1.00
2024-01-16T15:09:13.862Z,1.00
2024-01-16T15:11:44.090Z,1.00
2024-01-16T15:14:16.732Z,1.50
2024-01-16T15:16:44.790Z,1.00
2024-01-16T15:19:12.900Z,2.00
2024-01-16T15:21:41.609Z,2.00
2024-01-16T15:24:09.707Z,1.00
2024-01-16T15:26:38.219Z,1.00
2024-01-16T15:29:07.503Z,1.00
2024-01-16T15:31:35.802Z,1.00
2024-01-16T15:34:03.918Z,1.00
2024-01-16T15:36:31.954Z,1.00
2024-01-16T15:38:59.989Z,1.00
2024-01-16T15:41:28.617Z,2.00
2024-01-16T15:43:58.288Z,2.00
2024-01-16T15:46:29.850Z,0.75
2024-01-16T15:48:58.225Z,1.50
2024-01-16T15:51:26.479Z,1.00
2024-01-16T15:53:54.446Z,1.00
2024-01-16T15:56:22.473Z,1.00
2024-01-16T15:58:50.810Z,1.00
2024-01-16T16:01:20.568Z,0.75
2024-01-16T16:03:48.565Z,1.00
2024-01-16T16:06:16.702Z,1.00
2024-01-16T16:08:44.787Z,1.00
2024-01-16T16:11:13.498Z,1.25
2024-01-16T16:13:41.521Z,1.00
2024-01-16T16:16:09.611Z,1.00
2024-01-16T16:18:39.052Z,1.00
2024-01-16T16:21:07.370Z,1.50
2024-01-16T16:23:35.380Z,1.00
2024-01-16T16:26:03.410Z,1.00
2024-01-16T16:28:31.349Z,1.00
2024-01-16T16:31:00.316Z,2.00
2024-01-16T16:33:28.414Z,2.50
2024-01-16T16:35:57.934Z,5.50
2024-01-16T16:38:26.152Z,7.00
2024-01-16T16:40:54.494Z,5.75
2024-01-16T16:43:22.426Z,6.50
2024-01-16T16:45:50.441Z,6.25
2024-01-16T16:48:18.544Z,5.00
2024-01-16T16:50:47.010Z,4.00
2024-01-16T16:53:16.686Z,5.75
2024-01-16T16:55:44.632Z,6.00
2024-01-16T16:58:13.417Z,6.50
2024-01-16T17:00:43.835Z,6.75
2024-01-16T17:03:11.986Z,6.25
2024-01-16T17:05:40.726Z,8.25
2024-01-16T17:08:10.081Z,8.00
2024-01-16T17:10:40.262Z,9.00
2024-01-16T17:13:08.241Z,7.00
2024-01-16T17:15:36.279Z,8.00
2024-01-16T17:18:04.948Z,7.00
2024-01-16T17:20:33.350Z,6.75
2024-01-16T17:23:01.409Z,7.25
2024-01-16T17:25:30.315Z,7.00
2024-01-16T17:27:59.746Z,7.25
2024-01-16T17:30:28.068Z,6.00
2024-01-16T17:32:56.171Z,6.00
2024-01-16T17:35:25.218Z,6.00
2024-01-16T17:37:53.792Z,6.00
2024-01-16T17:40:22.098Z,6.25
2024-01-16T17:42:50.060Z,6.50
2024-01-16T17:45:19.748Z,5.75
2024-01-16T17:47:48.153Z,6.00
2024-01-16T17:50:17.397Z,7.25
2024-01-16T17:52:44.407Z,7.00
2024-01-16T17:55:12.951Z,8.00
2024-01-16T17:57:41.928Z,10.25
2024-01-16T18:00:11.630Z,10.75
2024-01-16T18:02:41.449Z,9.25
2024-01-16T18:05:11.485Z,9.00
2024-01-16T18:07:39.641Z,7.75
2024-01-16T18:10:10.353Z,9.00
2024-01-16T18:12:39.733Z,8.50
2024-01-16T18:15:12.920Z,9.50
2024-01-16T18:17:42.521Z,8.75
2024-01-16T18:20:11.987Z,9.50
2024-01-16T18:22:40.053Z,10.50
2024-01-16T18:25:09.870Z,11.00
2024-01-16T18:27:38.107Z,9.75
2024-01-16T18:30:09.039Z,9.00
2024-01-16T18:32:37.207Z,9.25
2024-01-16T18:35:09.733Z,9.00
2024-01-16T18:37:38.494Z,10.50
2024-01-16T18:40:10.047Z,10.00
2024-01-16T18:42:38.123Z,9.25
2024-01-16T18:45:12.015Z,9.00
2024-01-16T18:47:40.576Z,8.25
2024-01-16T18:50:11.039Z,8.00
2024-01-16T18:52:41.125Z,8.75
2024-01-16T18:55:11.041Z,8.00
2024-01-16T18:57:40.459Z,8.75
2024-01-16T19:00:15.276Z,7.00
2024-01-16T19:02:44.189Z,7.00
2024-01-16T19:05:14.271Z,8.00
2024-01-16T19:07:42.770Z,6.50
2024-01-16T19:10:13.946Z,8.00
2024-01-16T19:12:47.234Z,7.00
2024-01-16T19:15:18.880Z,7.75
2024-01-16T19:17:47.676Z,6.75
2024-01-16T19:20:17.876Z,7.00
2024-01-16T19:22:46.222Z,7.00
2024-01-16T19:25:17.370Z,7.75
2024-01-16T19:27:48.948Z,9.00
2024-01-16T19:30:20.442Z,7.00
2024-01-16T19:32:49.971Z,9.75
2024-01-16T19:35:19.960Z,13.25
2024-01-16T19:37:48.098Z,13.00
2024-01-16T19:40:17.594Z,11.25
2024-01-16T19:42:45.797Z,10.00
2024-01-16T19:45:14.615Z,12.50
2024-01-16T19:47:43.748Z,11.00
2024-01-16T19:50:21.429Z,10.00
2024-01-16T19:52:53.120Z,10.00
2024-01-16T19:55:23.284Z,10.50
2024-01-16T19:57:51.723Z,10.25
2024-01-16T20:00:20.756Z,10.75
2024-01-16T20:02:49.100Z,11.75
2024-01-16T20:05:17.887Z,9.50
2024-01-16T20:07:46.418Z,12.00
2024-01-16T20:10:16.957Z,11.00
2024-01-16T20:12:45.183Z,10.25
2024-01-16T20:15:13.876Z,10.25
2024-01-16T20:17:42.201Z,10.25
2024-01-16T20:20:11.774Z,10.00
2024-01-16T20:22:39.862Z,9.75
2024-01-16T20:25:08.632Z,13.00
2024-01-16T20:27:38.063Z,14.00
2024-01-16T20:30:09.980Z,16.75
2024-01-16T20:32:38.253Z,12.00
2024-01-16T20:35:07.615Z,14.00
2024-01-16T20:37:35.668Z,12.00
2024-01-16T20:40:05.741Z,17.00
2024-01-16T20:42:33.856Z,16.00
2024-01-16T20:45:08.605Z,16.25
2024-01-16T20:47:36.904Z,14.75
2024-01-16T20:50:06.819Z,13.00
2024-01-16T20:52:35.181Z,14.75
2024-01-16T20:55:06.522Z,14.50
2024-01-16T20:57:34.849Z,14.75
2024-01-16T21:00:14.325Z,14.25
2024-01-16T21:02:43.410Z,12.75
2024-01-16T21:05:12.132Z,13.00
2024-01-16T21:07:40.594Z,13.00
2024-01-16T21:10:09.802Z,13.00
2024-01-16T21:12:38.141Z,11.25
2024-01-16T21:15:10.166Z,11.00
2024-01-16T21:17:38.230Z,12.00
2024-01-16T21:20:10.453Z,11.00
2024-01-16T21:22:38.520Z,11.00
2024-01-16T21:25:07.138Z,11.50
2024-01-16T21:27:35.261Z,10.00
2024-01-16T21:30:03.890Z,12.00
2024-01-16T21:32:33.401Z,11.00
2024-01-16T21:35:01.415Z,11.25
2024-01-16T21:37:29.430Z,10.25
2024-01-16T21:39:57.637Z,10.00
2024-01-16T21:42:25.638Z,13.00
2024-01-16T21:44:54.522Z,12.75
2024-01-16T21:47:25.133Z,13.00
2024-01-16T21:49:55.082Z,18.75
2024-01-16T21:52:23.055Z,14.75
2024-01-16T21:54:52.050Z,14.00
2024-01-16T21:57:20.061Z,11.75
2024-01-16T21:59:48.405Z,16.50
2024-01-16T22:02:18.472Z,14.50
2024-01-16T22:04:46.604Z,16.00
2024-01-16T22:07:16.022Z,14.00
2024-01-16T22:09:44.237Z,17.00
2024-01-16T22:12:12.290Z,15.25
2024-01-16T22:14:40.450Z,13.50
2024-01-16T22:17:09.448Z,14.00
2024-01-16T22:19:37.581Z,14.00
2024-01-16T22:22:05.780Z,14.00
2024-01-16T22:24:35.137Z,13.00
2024-01-16T22:27:03.244Z,14.00
2024-01-16T22:29:31.533Z,13.50
2024-01-16T22:31:59.872Z,12.00
2024-01-16T22:34:28.297Z,12.00
2024-01-16T22:36:56.358Z,11.75
2024-01-16T22:39:25.345Z,12.75
2024-01-16T22:41:55.483Z,12.00
2024-01-16T22:44:23.952Z,12.00
2024-01-16T22:46:52.194Z,13.75
2024-01-16T22:49:20.239Z,11.75
2024-01-16T22:51:48.680Z,14.00
2024-01-16T22:54:16.692Z,12.75
2024-01-16T22:56:44.828Z,13.00
2024-01-16T22:59:14.582Z,13.00
2024-01-16T23:01:43.342Z,13.00
2024-01-16T23:04:11.354Z,11.75
2024-01-16T23:06:39.366Z,14.00
2024-01-16T23:09:07.741Z,14.00
2024-01-16T23:11:36.106Z,13.00
2024-01-16T23:14:04.144Z,11.25
2024-01-16T23:16:33.705Z,12.25
2024-01-16T23:19:02.097Z,12.00
2024-01-16T23:21:30.436Z,11.75
2024-01-16T23:23:58.614Z,11.75
2024-01-16T23:26:27.078Z,13.00
2024-01-16T23:28:55.116Z,12.75
2024-01-16T23:31:23.328Z,12.75
2024-01-16T23:33:53.571Z,12.75
2024-01-16T23:36:21.698Z,11.00
2024-01-16T23:38:49.734Z,13.00
2024-01-16T23:41:19.218Z,11.00
2024-01-16T23:43:47.238Z,11.00
2024-01-16T23:46:14.734Z,11.00
2024-01-16T23:48:45.345Z,11.00
2024-01-16T23:51:15.326Z,10.50
2024-01-16T23:53:43.378Z,10.50
2024-01-16T23:56:12.260Z,10.75
2024-01-16T23:58:40.429Z,10.00
